KLFK/LFK METAR and TAF weather

Enter ICAO airport designator
Station Type Date Time Source
KLFK METAR 2020/07/11 01:53 UTC NOAA

KLFK 110153Z AUTO 15004KT 10SM CLR 29/24 A2997 RMK AO2 SLP142 T02940244


Station Type Date Time Source
KLFK Decoded METAR 2020/07/11 01:53 UTC NOAA

LUFKIN ANGELINA COUNTY AIRPORT , TX, United States (KLFK) 31-14N 94-45W 88M
Jul 10, 2020 - 09:53 PM EDT / 2020.07.11 0153 UTC
Wind: from the SSE (150 degrees) at 5 MPH (4 KT):0
Visibility: 10 mile(s):0
Sky conditions: clear
Temperature: 84.9 F (29.4 C)
Dew Point: 75.9 F (24.4 C)
Relative Humidity: 74%
Pressure (altimeter): 29.97 in. Hg (1014 hPa)
ob: KLFK 110153Z AUTO 15004KT 10SM CLR 29/24 A2997 RMK AO2 SLP142 T02940244
cycle: 2

Station Type Date Time Source
KLFK TAF 2020/07/10 18:22 UTC NOAA

TAF KLFK 101720Z 1018/1118 21008KT P6SM SKC
FM102300 VRB03KT P6SM FEW250
FM110600 VRB03KT 6SM BR FEW250
FM111100 VRB03KT 5SM BR BKN015
FM111400 23006KT P6SM SCT250

Example: see airport list